Hushitai, China
Current Conditions -  °F | °C
As of 12:00 AM on Thursday 27 Nov 2014 (Local Time) from ZYTX Reporting Station
Scattered Clouds Scattered Clouds  
Wind Chill: 39°   Ceiling: Unl
Heat Index: 43°   Visibility: 6mi
Dew Point: 25°   Wind: 7mph
Humidity: 49%   Direction: 220°SW
Pressure: 30.12"   Gusts: NA
Location:  41.95°N, 123.51°E
Report Text: ZYTX 261600Z 22003MPS 9999 SCT040 06/M04 Q1020 NOSIG
Loading
Personal Weather Stations






























Interactive Weather Map New forecast layout! Learn more

10-Day Weather Forecast

Advertisements
Track Severe Weather on mobile